Aérodrome :
LOGIN :

S'inscrire | Disclaimer

   EN    FR    IT 

 










Légende :    VFR   VFR Marginal   IFR   IFR Intensif   IFR Très Intensif
Visi : 
Plafond : 
>= 8 km
>= 3000ft
5 à 8 km
1000 à 3000 ft
1500m à 5 km
500 à 1000 ft
800 à 1500m
200 à 500 ft
< 800m
< 200 ft
Symboles :   Orages  Brouillard  Fortes neiges  Fortes précipitations  Vent > 20 kt
SIGMETs :   Divers  Orages  Givrage  Turbulence  Onde Orograph.  Cendres Volcan.







- Altitude de l'aérodrome : 200 ft


EBBL - Klein Brogel AB

DERNIER METAR :
  • 190355Z AUTO 24008KT 9999 SCT014/// BKN096/// 08/05 Q1017 GRN

METARs EXPIRÉS :
  • 190333Z AUTO 24008KT 9999 BKN014/// BKN096/// 08/05 Q1017 GRN
  • 190303Z AUTO 23005KT 9999 SCT017/// OVC077/// 08/05 Q1017 WHT
  • 190255Z AUTO 23005KT 9999 FEW017/// OVC074/// 07/05 Q1017 BLU
  • 190225Z AUTO 23005KT 9000 SCT043/// OVC063/// 07/05 Q1017 BLU
  • 190213Z AUTO 23004KT 9999 BKN029/// OVC062/// 07/05 Q1017 BLU
  • 190155Z AUTO 25004KT 9999 -DZ OVC024/// 07/05 Q1017 WHT
  • 190125Z AUTO 27005KT 9999 -DZ OVC018/// 08/05 Q1017 WHT

TAF TAF EBBL
Valide du 18 à 19h jusqu'au 19 à 07h UTC


181541Z 1819/1907 20008KT 9999 FEW200
TEMPO 1819/1901 SCT200
BECMG 1823/1901 25008KT 9999 BKN023 BKN080
TEMPO 1823/1907 5000 -RA SCT010 BKN040
PROB40
TEMPO 1904/1907 2500 RA -DZ OVC006
Pas de NOTAMs connus pour ce terrain.



MET'MAP, la Météo Aéronautique d'un coup d'oeil ! - Copyright ORBIFLY Décembre 2007 - Disclaimer

ORBIFLY MET'MAP TEAM :

Programmation & Développement : Alexandra Zaïnal
Conception & Développement : Baudouin d'Aumeries
Co-Programmation & Développement : Marc-Olivier Méhu
Soutien technique & logistique : Manuel Goepfert

Contact : metmap@orbifly.com




SOURCES & CREDITS :

   NOAA